Startbyn, Sweden

4:32 AM CET on February 06, 2016 (GMT +0100)
Kallax Air Base | | Change Station
CLOSE
Current Station
Airport
Location: Lulea-Kallax,
Elevation: 112 ft
Nearby Weather Stations

Elev 112 ft 65.54 °N, 22.12 °E | Updated 12 minutes ago

Clear
Clear
-2 °F
Feels Like -2 °F
N
1
Wind Variable Wind from Variable

Today
High -- | Low -- °F
--% Chance of Precip.
Yesterday
High -- | Low -- °F
Precip. -- in
Pressure 29.74 in
Visibility 6.2 miles
Clouds
Dew Point -6 °F
Humidity 85%
Rainfall 0.00 in
Snow Depth Not available.
8:11 AM 3:14 PM
Waning Crescent, 8% visible
METAR ESPA 060320Z AUTO VRB01KT 9999 NCD M19/M21 Q1007
Pressure 29.74 in
Visibility 6.2 miles
Clouds
Dew Point -6 °F
Humidity 85%
Rainfall 0.00 in
Snow Depth Not available.
8:11 AM 3:14 PM
Waning Crescent, 8% visible
METAR ESPA 060320Z AUTO VRB01KT 9999 NCD M19/M21 Q1007

10-Day Weather Forecast

Almanac

Astronomy

Feb. 06, 2016 Rise Set
Actual Time
Civil Twilight
Nautical Twilight
Astronomical Twilight
Moon
Length of Visible Light
Length of Day
Tomorrow will be .
, % of the Moon is Illuminated

Today's Extremes

Country Highs Country Lows

Community

WunderPhotos

Upload Photos

1,890,919 photos uploaded!

WunderBlog® & News

Nearby

Air Quality

  Air Quality AQ Index Pollutant
Not available.

Snow Depth

Station Depth Elevation

Earthquake Activity

City Distance Mag. Time & Date
Minimum magnitude displayed is 2.5.

Coastal Water Temperatures

Place Temperature

Stations

Nearby Weather Stations

Station Location Temp. Windchill Dew Point Humidity Wind Precip. Elev Updated Type